createdAt,value
2019-05-29T00:00:10.064Z,82.53
2019-05-29T00:02:38.759Z,82.53
2019-05-29T00:05:08.390Z,82.95
2019-05-29T00:07:36.812Z,82.42
2019-05-29T00:10:08.773Z,82.15
2019-05-29T00:12:37.486Z,82.82
2019-05-29T00:15:06.295Z,83.74
2019-05-29T00:17:34.886Z,83.94
2019-05-29T00:20:03.361Z,82.60
2019-05-29T00:22:31.808Z,82.73
2019-05-29T00:25:00.244Z,83.02
2019-05-29T00:27:28.657Z,82.61
2019-05-29T00:29:57.100Z,82.69
2019-05-29T00:32:25.524Z,83.06
2019-05-29T00:34:53.962Z,82.81
2019-05-29T00:37:22.480Z,83.16
2019-05-29T00:39:50.852Z,83.26
2019-05-29T00:42:19.271Z,82.86
2019-05-29T00:44:47.702Z,82.75
2019-05-29T00:47:16.116Z,83.89
2019-05-29T00:49:44.538Z,83.86
2019-05-29T00:52:14.198Z,83.89
2019-05-29T00:54:43.228Z,84.01
2019-05-29T00:57:12.866Z,84.22
2019-05-29T00:59:41.629Z,84.48
2019-05-29T01:02:11.783Z,85.23
2019-05-29T01:04:40.315Z,84.26
2019-05-29T01:07:10.090Z,84.10
2019-05-29T01:09:38.899Z,84.17
2019-05-29T01:12:07.993Z,84.06
2019-05-29T01:14:49.169Z,83.84
2019-05-29T01:17:06.565Z,83.62
2019-05-29T01:19:34.969Z,84.29
2019-05-29T01:22:03.447Z,84.46
2019-05-29T01:24:31.969Z,85.06
2019-05-29T01:27:00.370Z,85.20
2019-05-29T01:29:28.799Z,85.89
2019-05-29T01:31:57.237Z,86.09
2019-05-29T01:34:25.645Z,85.94
2019-05-29T01:36:54.089Z,85.15
2019-05-29T01:39:23.529Z,85.03
2019-05-29T01:41:51.995Z,85.36
2019-05-29T01:44:21.456Z,87.02
2019-05-29T01:46:50.015Z,86.64
2019-05-29T01:49:19.522Z,86.72
2019-05-29T01:51:48.343Z,87.00
2019-05-29T01:54:17.546Z,85.88
2019-05-29T01:56:46.085Z,86.20
2019-05-29T01:59:15.635Z,86.78
2019-05-29T02:01:44.303Z,86.63
2019-05-29T02:04:12.717Z,87.00
2019-05-29T02:06:41.148Z,86.91
2019-05-29T02:09:09.562Z,86.51
2019-05-29T02:11:38.006Z,86.46
2019-05-29T02:14:06.404Z,86.76
2019-05-29T02:16:34.820Z,86.33
2019-05-29T02:19:03.255Z,86.29
2019-05-29T02:21:31.647Z,87.30
2019-05-29T02:24:00.072Z,87.30
2019-05-29T02:26:28.486Z,87.30
2019-05-29T02:28:56.915Z,87.38
2019-05-29T02:31:27.118Z,87.56
2019-05-29T02:33:55.474Z,87.45
2019-05-29T02:36:24.574Z,88.39
2019-05-29T02:38:53.668Z,88.95
2019-05-29T02:41:24.138Z,88.77
2019-05-29T02:43:52.374Z,89.53
2019-05-29T02:46:21.776Z,89.44
2019-05-29T02:48:50.881Z,88.82
2019-05-29T02:51:19.726Z,89.51
2019-05-29T02:53:48.290Z,90.02
2019-05-29T02:56:16.706Z,90.05
2019-05-29T02:58:45.667Z,90.34
2019-05-29T03:01:14.588Z,90.19
2019-05-29T03:03:42.961Z,89.04
2019-05-29T03:06:12.830Z,90.71
2019-05-29T03:08:41.360Z,90.74
2019-05-29T03:11:09.934Z,90.42
2019-05-29T03:13:38.533Z,91.07
2019-05-29T03:16:11.443Z,91.09
2019-05-29T03:18:37.127Z,91.05
2019-05-29T03:21:05.637Z,90.87
2019-05-29T03:23:36.283Z,91.73
2019-05-29T03:26:04.449Z,91.54
2019-05-29T03:28:35.128Z,91.93
2019-05-29T03:31:03.424Z,92.75
2019-05-29T03:33:39.329Z,92.44
2019-05-29T03:36:02.009Z,92.25
2019-05-29T03:38:32.463Z,92.44
2019-05-29T03:41:00.632Z,92.00
2019-05-29T03:43:30.892Z,92.70
2019-05-29T03:45:59.343Z,92.70
2019-05-29T03:48:27.900Z,92.10
2019-05-29T03:50:56.361Z,92.32
2019-05-29T03:53:24.813Z,92.66
2019-05-29T03:55:53.253Z,92.45
2019-05-29T03:58:21.757Z,92.90
2019-05-29T04:00:50.218Z,92.58
2019-05-29T04:03:18.663Z,92.76
2019-05-29T04:05:47.224Z,93.38
2019-05-29T04:08:15.636Z,93.15
2019-05-29T04:10:44.098Z,93.62
2019-05-29T04:13:13.181Z,93.29
2019-05-29T04:15:42.840Z,93.56
2019-05-29T04:18:11.327Z,94.31
2019-05-29T04:20:39.830Z,94.63
2019-05-29T04:23:08.783Z,95.68
2019-05-29T04:25:41.887Z,95.73
2019-05-29T04:28:08.873Z,95.72
2019-05-29T04:30:39.191Z,95.89
2019-05-29T04:33:07.518Z,95.57
2019-05-29T04:35:36.810Z,95.14
2019-05-29T04:38:05.788Z,95.13
2019-05-29T04:40:34.963Z,95.72
2019-05-29T04:43:04.366Z,95.67
2019-05-29T04:45:33.451Z,95.13
2019-05-29T04:48:02.902Z,95.04
2019-05-29T04:50:32.957Z,94.77
2019-05-29T04:53:01.459Z,95.77
2019-05-29T04:55:30.720Z,94.84
2019-05-29T04:57:59.180Z,94.36
2019-05-29T05:00:28.920Z,92.78
2019-05-29T05:02:57.628Z,93.88
2019-05-29T05:05:26.126Z,92.61
2019-05-29T05:07:54.558Z,92.03
2019-05-29T05:10:38.033Z,91.46
2019-05-29T05:13:07.240Z,91.20
2019-05-29T05:15:36.390Z,90.65
2019-05-29T05:18:06.706Z,89.48
2019-05-29T05:20:36.224Z,89.29
2019-05-29T05:23:05.712Z,88.95
2019-05-29T05:25:34.389Z,88.91
2019-05-29T05:28:04.234Z,88.87
2019-05-29T05:30:36.456Z,88.23
2019-05-29T05:33:05.276Z,87.57
2019-05-29T05:35:34.663Z,88.60
2019-05-29T05:38:03.491Z,89.09
2019-05-29T05:40:33.017Z,87.74
2019-05-29T05:43:02.083Z,87.36
2019-05-29T05:45:30.904Z,84.89
2019-05-29T05:47:59.415Z,83.25
2019-05-29T05:50:27.819Z,81.33
2019-05-29T05:52:56.313Z,80.14
2019-05-29T05:55:24.731Z,78.93
2019-05-29T05:57:53.157Z,76.43
2019-05-29T06:00:34.143Z,73.69
2019-05-29T06:03:02.555Z,71.27
2019-05-29T06:05:32.115Z,68.90
2019-05-29T06:08:00.899Z,67.29
2019-05-29T06:10:29.442Z,68.24
2019-05-29T06:12:57.887Z,66.59
2019-05-29T06:15:26.390Z,65.49
2019-05-29T06:18:17.013Z,65.08
2019-05-29T06:20:24.963Z,64.89
2019-05-29T06:22:53.371Z,65.75
2019-05-29T06:25:22.178Z,66.97
2019-05-29T06:27:50.584Z,68.15
2019-05-29T06:30:19.230Z,67.35
2019-05-29T06:32:47.672Z,66.88
2019-05-29T06:35:16.152Z,66.82
2019-05-29T06:37:44.649Z,65.84
2019-05-29T06:40:14.669Z,67.81
2019-05-29T06:42:43.958Z,68.93
2019-05-29T06:45:13.535Z,67.86
2019-05-29T06:47:42.763Z,67.01
2019-05-29T06:50:11.294Z,67.14
2019-05-29T06:52:39.745Z,66.27
2019-05-29T06:55:08.625Z,66.46
2019-05-29T06:57:38.136Z,67.58
2019-05-29T07:00:08.128Z,67.27
2019-05-29T07:02:36.524Z,67.25
2019-05-29T07:05:06.598Z,66.79
2019-05-29T07:07:36.016Z,65.55
2019-05-29T07:10:06.773Z,65.17
2019-05-29T07:12:36.282Z,65.91
2019-05-29T07:15:09.606Z,65.13
2019-05-29T07:17:38.570Z,65.95
2019-05-29T07:20:07.668Z,65.41
2019-05-29T07:22:36.972Z,64.80
2019-05-29T07:25:07.132Z,65.35
2019-05-29T07:27:36.725Z,63.34
2019-05-29T07:30:07.383Z,62.36
2019-05-29T07:32:38.179Z,59.34
2019-05-29T07:35:06.847Z,57.46
2019-05-29T07:37:35.290Z,56.82
2019-05-29T07:40:07.608Z,57.51
2019-05-29T07:42:36.032Z,58.73
2019-05-29T07:45:06.005Z,60.33
2019-05-29T07:47:34.419Z,59.24
2019-05-29T07:50:03.297Z,59.25
2019-05-29T07:52:31.753Z,59.20
2019-05-29T07:55:00.261Z,59.65
2019-05-29T07:57:28.687Z,58.93
2019-05-29T07:59:57.129Z,58.72
2019-05-29T08:02:25.614Z,56.51
2019-05-29T08:04:54.032Z,56.78
2019-05-29T08:07:22.458Z,55.67
2019-05-29T08:09:50.865Z,56.29
2019-05-29T08:12:19.335Z,57.64
2019-05-29T08:14:47.959Z,58.80
2019-05-29T08:17:16.375Z,59.61
2019-05-29T08:19:59.297Z,58.39
2019-05-29T08:22:15.014Z,59.92
2019-05-29T08:24:45.854Z,58.97
2019-05-29T08:27:13.649Z,60.37
2019-05-29T08:29:42.588Z,61.51
2019-05-29T08:32:11.119Z,63.06
2019-05-29T08:34:40.827Z,64.89
2019-05-29T08:37:10.957Z,63.33
2019-05-29T08:39:39.356Z,62.82
2019-05-29T08:42:22.706Z,62.70
2019-05-29T08:44:38.108Z,61.48
2019-05-29T08:47:10.695Z,61.97
2019-05-29T08:49:36.846Z,61.54
2019-05-29T08:52:11.853Z,61.29
2019-05-29T08:54:37.728Z,62.11
2019-05-29T08:57:06.186Z,62.37
2019-05-29T08:59:34.719Z,62.19
2019-05-29T09:02:03.081Z,62.98
2019-05-29T09:04:31.523Z,65.52
2019-05-29T09:07:00.027Z,62.78
2019-05-29T09:09:28.431Z,63.89
2019-05-29T09:11:56.868Z,62.10
2019-05-29T09:14:25.286Z,65.05
2019-05-29T09:16:53.750Z,63.33
2019-05-29T09:19:22.853Z,58.06
2019-05-29T09:21:51.682Z,59.75
2019-05-29T09:24:20.939Z,61.25
2019-05-29T09:26:49.674Z,62.32
2019-05-29T09:29:20.597Z,61.80
2019-05-29T09:31:48.328Z,60.90
2019-05-29T09:34:18.630Z,60.36
2019-05-29T09:36:47.097Z,60.02
2019-05-29T09:39:16.677Z,62.23
2019-05-29T09:41:45.813Z,61.39
2019-05-29T09:44:28.167Z,62.53
2019-05-29T09:46:44.542Z,62.09
2019-05-29T09:49:13.001Z,59.92
2019-05-29T09:51:41.436Z,60.56
2019-05-29T09:54:09.983Z,59.17
2019-05-29T09:56:38.472Z,58.38
2019-05-29T09:59:06.895Z,57.95
2019-05-29T10:01:35.349Z,58.29
2019-05-29T10:04:06.051Z,61.56
2019-05-29T10:06:33.934Z,58.96
2019-05-29T10:09:03.648Z,57.28
2019-05-29T10:11:32.360Z,58.06
2019-05-29T10:14:02.626Z,58.35
2019-05-29T10:16:30.956Z,61.59
2019-05-29T10:19:00.360Z,58.73
2019-05-29T10:21:39.885Z,59.41
2019-05-29T10:24:01.241Z,57.15
2019-05-29T10:26:30.090Z,56.67
2019-05-29T10:29:07.590Z,58.09
2019-05-29T10:31:28.907Z,56.75
2019-05-29T10:33:57.336Z,55.62
2019-05-29T10:36:25.816Z,55.85
2019-05-29T10:38:55.900Z,55.36
2019-05-29T10:41:24.395Z,55.78
2019-05-29T10:43:53.363Z,55.95
2019-05-29T10:46:22.105Z,56.22
2019-05-29T10:48:53.348Z,55.50
2019-05-29T10:51:20.805Z,57.97
2019-05-29T10:53:50.340Z,57.31
2019-05-29T10:56:21.320Z,57.32
2019-05-29T10:58:56.462Z,55.65
2019-05-29T11:01:20.044Z,55.16
2019-05-29T11:03:49.357Z,55.74
2019-05-29T11:06:18.012Z,52.94
2019-05-29T11:08:48.061Z,54.76
2019-05-29T11:11:16.617Z,58.34
2019-05-29T11:13:46.593Z,55.81
2019-05-29T11:16:15.126Z,55.21
2019-05-29T11:18:43.700Z,58.42
2019-05-29T11:21:12.145Z,55.39
2019-05-29T11:23:40.580Z,57.04
2019-05-29T11:26:09.066Z,57.83
2019-05-29T11:28:37.489Z,56.71
2019-05-29T11:31:06.548Z,58.11
2019-05-29T11:33:34.999Z,58.47
2019-05-29T11:36:10.748Z,55.72
2019-05-29T11:38:33.738Z,56.84
2019-05-29T11:41:24.506Z,54.85
2019-05-29T11:43:32.504Z,54.62
2019-05-29T11:46:01.950Z,53.93
2019-05-29T11:48:30.485Z,54.01
2019-05-29T11:50:58.951Z,55.13
2019-05-29T11:53:27.403Z,57.03
2019-05-29T11:55:56.022Z,56.21
2019-05-29T11:58:30.904Z,54.44
2019-05-29T12:00:55.146Z,54.16
2019-05-29T12:03:23.867Z,53.24
2019-05-29T12:05:53.484Z,55.97
2019-05-29T12:08:22.202Z,55.05
2019-05-29T12:10:51.295Z,58.23
2019-05-29T12:13:19.828Z,54.45
2019-05-29T12:15:48.341Z,57.39
2019-05-29T12:18:23.390Z,57.78
2019-05-29T12:20:47.053Z,54.92
2019-05-29T12:23:25.966Z,54.68
2019-05-29T12:25:45.757Z,54.10
2019-05-29T12:28:14.219Z,55.63
2019-05-29T12:30:42.702Z,54.81
2019-05-29T12:33:11.142Z,54.80
2019-05-29T12:35:39.646Z,54.48
2019-05-29T12:38:08.127Z,52.63
2019-05-29T12:40:36.553Z,52.70
2019-05-29T12:43:05.726Z,52.63
2019-05-29T12:45:34.251Z,50.15
2019-05-29T12:48:06.655Z,48.92
2019-05-29T12:50:34.474Z,49.15
2019-05-29T12:53:03.959Z,51.33
2019-05-29T12:55:32.509Z,50.83
2019-05-29T12:58:02.190Z,50.78
2019-05-29T13:00:31.087Z,51.81
2019-05-29T13:03:00.741Z,50.67
2019-05-29T13:05:29.358Z,53.52
2019-05-29T13:07:58.876Z,51.34
2019-05-29T13:10:30.999Z,50.51
2019-05-29T13:13:04.814Z,51.35
2019-05-29T13:15:29.322Z,48.54
2019-05-29T13:18:02.449Z,51.19
2019-05-29T13:20:28.039Z,50.87
2019-05-29T13:22:57.693Z,49.22
2019-05-29T13:25:26.206Z,48.10
2019-05-29T13:27:57.369Z,49.16
2019-05-29T13:30:24.941Z,49.54
2019-05-29T13:32:53.411Z,50.29
2019-05-29T13:35:22.643Z,50.18
2019-05-29T13:37:51.147Z,51.94
2019-05-29T13:40:20.121Z,50.46
2019-05-29T13:42:48.545Z,49.90
2019-05-29T13:45:19.957Z,50.10
2019-05-29T13:47:48.376Z,50.02
2019-05-29T13:50:17.544Z,49.66
2019-05-29T13:52:46.021Z,49.78
2019-05-29T13:55:16.593Z,51.15
2019-05-29T13:57:45.053Z,50.31
2019-05-29T14:00:32.574Z,49.88
2019-05-29T14:02:46.688Z,50.29
2019-05-29T14:05:17.096Z,51.93
2019-05-29T14:07:45.478Z,49.93
2019-05-29T14:10:15.063Z,49.24
2019-05-29T14:12:43.623Z,49.92
2019-05-29T14:15:15.166Z,49.02
2019-05-29T14:17:43.619Z,48.59
2019-05-29T14:20:13.161Z,50.12
2019-05-29T14:22:41.662Z,52.07
2019-05-29T14:25:11.653Z,49.77
2019-05-29T14:27:40.441Z,48.43
2019-05-29T14:30:10.671Z,48.59
2019-05-29T14:32:39.707Z,47.94
2019-05-29T14:35:10.441Z,47.84
2019-05-29T14:37:38.881Z,46.54
2019-05-29T14:40:08.125Z,47.49
2019-05-29T14:42:36.798Z,48.94
2019-05-29T14:45:10.342Z,49.16
2019-05-29T14:47:39.434Z,49.03
2019-05-29T14:50:09.117Z,47.06
2019-05-29T14:52:38.307Z,46.48
2019-05-29T14:55:08.778Z,46.33
2019-05-29T14:57:37.521Z,50.58
2019-05-29T15:00:18.901Z,46.52
2019-05-29T15:02:38.142Z,45.65
2019-05-29T15:05:09.608Z,46.48
2019-05-29T15:07:38.354Z,47.07
2019-05-29T15:10:24.047Z,47.43
2019-05-29T15:12:39.169Z,49.33
2019-05-29T15:15:11.122Z,49.70
2019-05-29T15:17:39.263Z,49.51
2019-05-29T15:20:09.740Z,48.65
2019-05-29T15:22:38.836Z,47.40
2019-05-29T15:25:17.416Z,49.85
2019-05-29T15:27:38.410Z,49.26
2019-05-29T15:30:11.115Z,50.48
2019-05-29T15:32:39.730Z,52.39
2019-05-29T15:35:14.481Z,48.62
2019-05-29T15:37:40.858Z,49.36
2019-05-29T15:40:12.726Z,47.31
2019-05-29T15:42:41.402Z,48.59
2019-05-29T15:45:12.181Z,48.25
2019-05-29T15:47:40.621Z,48.07
2019-05-29T15:50:13.382Z,47.53
2019-05-29T15:52:41.863Z,49.60
2019-05-29T15:55:24.629Z,47.90
2019-05-29T15:57:42.352Z,48.30
2019-05-29T16:00:13.642Z,48.89
2019-05-29T16:02:42.325Z,49.53
2019-05-29T16:05:13.169Z,48.91
2019-05-29T16:07:41.801Z,48.09
2019-05-29T16:10:14.717Z,48.07
2019-05-29T16:12:42.584Z,49.72
2019-05-29T16:15:13.100Z,49.56
2019-05-29T16:17:41.764Z,49.08
2019-05-29T16:20:12.355Z,49.16
2019-05-29T16:22:41.047Z,50.08
2019-05-29T16:25:10.836Z,49.24
2019-05-29T16:27:39.626Z,49.71
2019-05-29T16:30:09.392Z,49.87
2019-05-29T16:32:38.351Z,49.05
2019-05-29T16:35:10.978Z,48.87
2019-05-29T16:37:39.627Z,49.24
2019-05-29T16:40:14.321Z,48.74
2019-05-29T16:42:43.451Z,49.62
2019-05-29T16:45:14.192Z,49.49
2019-05-29T16:47:42.928Z,50.88
2019-05-29T16:50:12.941Z,49.94
2019-05-29T16:52:41.523Z,49.43
2019-05-29T16:55:12.959Z,49.84
2019-05-29T16:57:42.175Z,50.67
2019-05-29T17:00:13.608Z,50.97
2019-05-29T17:02:43.213Z,50.69
2019-05-29T17:05:12.083Z,51.58
2019-05-29T17:07:40.505Z,50.76
2019-05-29T17:10:10.182Z,51.15
2019-05-29T17:12:38.694Z,50.77
2019-05-29T17:15:11.952Z,51.83
2019-05-29T17:17:40.453Z,51.16
2019-05-29T17:20:10.513Z,50.96
2019-05-29T17:22:38.963Z,50.94
2019-05-29T17:25:07.844Z,51.27
2019-05-29T17:27:36.366Z,52.26
2019-05-29T17:30:07.425Z,53.93
2019-05-29T17:32:35.859Z,52.48
2019-05-29T17:35:07.028Z,53.29
2019-05-29T17:37:35.544Z,52.22
2019-05-29T17:40:05.810Z,51.92
2019-05-29T17:42:34.221Z,51.04
2019-05-29T17:45:03.649Z,51.94
2019-05-29T17:47:32.272Z,52.17
2019-05-29T17:50:00.708Z,51.50
2019-05-29T17:52:29.211Z,52.23
2019-05-29T17:54:57.630Z,50.69
2019-05-29T17:57:26.869Z,51.63
2019-05-29T17:59:55.292Z,55.28
2019-05-29T18:02:24.529Z,54.13
2019-05-29T18:04:53.199Z,53.28
2019-05-29T18:07:22.638Z,54.08
2019-05-29T18:09:51.410Z,54.84
2019-05-29T18:12:20.953Z,54.06
2019-05-29T18:14:49.350Z,54.21
2019-05-29T18:17:17.805Z,55.54
2019-05-29T18:19:46.205Z,54.43
2019-05-29T18:22:14.637Z,54.28
2019-05-29T18:24:43.145Z,55.60
2019-05-29T18:27:11.597Z,53.67
2019-05-29T18:29:40.007Z,54.00
2019-05-29T18:32:08.525Z,55.30
2019-05-29T18:34:36.945Z,54.94
2019-05-29T18:37:05.465Z,56.40
2019-05-29T18:39:34.126Z,55.08
2019-05-29T18:42:02.561Z,55.47
2019-05-29T18:44:31.068Z,55.23
2019-05-29T18:47:05.634Z,57.76
2019-05-29T18:49:33.979Z,56.26
2019-05-29T18:52:02.400Z,58.97
2019-05-29T18:54:32.982Z,58.44
2019-05-29T18:57:14.366Z,57.48
2019-05-29T18:59:32.137Z,57.21
2019-05-29T19:02:00.560Z,57.97
2019-05-29T19:04:29.899Z,57.53
2019-05-29T19:06:58.400Z,57.58
2019-05-29T19:09:27.821Z,57.76
2019-05-29T19:11:56.540Z,59.47
2019-05-29T19:14:25.804Z,60.49
2019-05-29T19:16:54.552Z,60.75
2019-05-29T19:19:24.016Z,61.32
2019-05-29T19:21:52.905Z,62.68
2019-05-29T19:24:22.552Z,64.91
2019-05-29T19:26:51.133Z,62.59
2019-05-29T19:29:19.552Z,65.71
2019-05-29T19:31:47.980Z,63.73
2019-05-29T19:34:16.416Z,63.29
2019-05-29T19:36:45.008Z,63.96
2019-05-29T19:39:13.439Z,65.41
2019-05-29T19:41:41.870Z,65.52
2019-05-29T19:44:10.370Z,64.27
2019-05-29T19:46:53.189Z,66.37
2019-05-29T19:49:09.097Z,65.97
2019-05-29T19:51:37.542Z,65.29
2019-05-29T19:54:06.055Z,66.32
2019-05-29T19:56:34.489Z,66.73
2019-05-29T19:59:02.916Z,67.41
2019-05-29T20:01:36.927Z,68.77
2019-05-29T20:04:01.589Z,67.60
2019-05-29T20:06:30.961Z,67.23
2019-05-29T20:08:59.439Z,67.36
2019-05-29T20:11:27.930Z,68.27
2019-05-29T20:13:56.345Z,68.07
2019-05-29T20:16:24.806Z,67.85
2019-05-29T20:18:53.217Z,69.40
2019-05-29T20:21:21.650Z,69.31
2019-05-29T20:23:50.133Z,69.26
2019-05-29T20:26:18.509Z,69.26
2019-05-29T20:28:46.950Z,68.73
2019-05-29T20:31:15.372Z,71.06
2019-05-29T20:33:43.812Z,71.14
2019-05-29T20:36:12.240Z,71.69
2019-05-29T20:38:41.355Z,72.42
2019-05-29T20:41:09.873Z,72.58
2019-05-29T20:43:39.643Z,72.13
2019-05-29T20:46:08.351Z,72.33
2019-05-29T20:48:36.779Z,72.02
2019-05-29T20:51:05.271Z,71.41
2019-05-29T20:53:33.685Z,73.13
2019-05-29T20:56:02.102Z,72.78
2019-05-29T20:58:31.629Z,71.77
2019-05-29T21:01:03.223Z,71.98
2019-05-29T21:03:30.587Z,72.09
2019-05-29T21:05:59.013Z,72.56
2019-05-29T21:08:27.478Z,74.97
2019-05-29T21:10:56.259Z,74.75
2019-05-29T21:13:24.698Z,75.12
2019-05-29T21:15:53.121Z,74.60
2019-05-29T21:18:21.541Z,75.57
2019-05-29T21:20:49.993Z,77.14
2019-05-29T21:23:18.581Z,77.80
2019-05-29T21:25:47.071Z,78.27
2019-05-29T21:28:15.516Z,78.29
2019-05-29T21:30:43.958Z,78.85
2019-05-29T21:33:12.410Z,79.42
2019-05-29T21:35:42.116Z,78.93
2019-05-29T21:38:10.610Z,80.03
2019-05-29T21:40:40.305Z,80.86
2019-05-29T21:43:08.932Z,80.06
2019-05-29T21:45:38.675Z,80.72
2019-05-29T21:48:07.245Z,80.47
2019-05-29T21:50:37.055Z,81.05
2019-05-29T21:53:05.927Z,81.47
2019-05-29T21:55:34.361Z,81.37
2019-05-29T21:58:02.775Z,80.93
2019-05-29T22:00:38.065Z,80.09
2019-05-29T22:03:06.538Z,80.36
2019-05-29T22:05:35.147Z,80.83
2019-05-29T22:08:03.707Z,80.87
2019-05-29T22:10:32.276Z,81.05
2019-05-29T22:13:02.171Z,81.15
2019-05-29T22:15:30.606Z,83.21
2019-05-29T22:17:59.248Z,82.33
2019-05-29T22:20:27.818Z,82.90
2019-05-29T22:22:57.188Z,82.88
2019-05-29T22:25:25.850Z,82.88
2019-05-29T22:27:55.610Z,84.04
2019-05-29T22:30:24.475Z,83.59
2019-05-29T22:32:53.304Z,83.98
2019-05-29T22:35:22.350Z,84.62
2019-05-29T22:37:51.529Z,84.71
2019-05-29T22:40:20.167Z,85.54
2019-05-29T22:42:48.586Z,86.82
2019-05-29T22:45:17.007Z,87.32
2019-05-29T22:47:45.432Z,88.11
2019-05-29T22:50:14.030Z,88.63
2019-05-29T22:52:42.483Z,88.93
2019-05-29T22:55:11.537Z,88.48
2019-05-29T22:57:39.975Z,89.15
2019-05-29T23:00:12.125Z,89.34
2019-05-29T23:02:40.538Z,89.24
2019-05-29T23:05:10.212Z,89.99
2019-05-29T23:07:39.415Z,89.69
2019-05-29T23:10:11.909Z,89.42
2019-05-29T23:12:40.416Z,88.93
2019-05-29T23:15:09.584Z,89.89
2019-05-29T23:17:38.083Z,90.53
2019-05-29T23:20:08.444Z,90.42
2019-05-29T23:22:36.951Z,90.49
2019-05-29T23:25:07.189Z,90.92
2019-05-29T23:27:36.230Z,91.02
2019-05-29T23:30:08.931Z,91.49
2019-05-29T23:32:37.431Z,91.42
2019-05-29T23:35:07.080Z,91.25
2019-05-29T23:37:35.523Z,91.47
2019-05-29T23:40:08.578Z,92.32
2019-05-29T23:42:37.012Z,92.46
2019-05-29T23:45:09.539Z,92.34
2019-05-29T23:47:37.952Z,92.55
2019-05-29T23:50:08.003Z,92.97
2019-05-29T23:52:36.429Z,93.48
2019-05-29T23:55:06.687Z,93.68
2019-05-29T23:57:35.120Z,93.25
